Startpagina
METAR-TAF:

METAR-TAF

Vliegvelden :

Wellington, Nieuw-Zeeland

breedte: 41-20S, lengte: 174-48E, hoogte: 12 m

Actueel weer

Dit bericht is 36 minuten geleden gemaakt, om 00:00 UTC
Wind 21 kt uit het noorden
Temperatuur 24°C
Vochtigheid 54%
Druk 1011 hPa
Zicht 10 km of meer

METAR: NZWN 190000Z AUTO 01021KT 9999 NCD 24/14 Q1011 NOSIG

Tijdstip: 13:36 (00:36 UTC)

Verwachting

Dit bericht is 1 uur en het 34 minuten geleden gemaakt, om 23:02 UTC
Verwachting geldig van 19 om 00 UTC tot 20 om 00 UTC
Wind 20 kt uit het noorden met uitschieters tot 30 kt
Zicht 10 km of meer
Weinig wolken op 2500 ft

TAF: NZWN 182302Z 1900/2000 01020G30KT 9999 FEW025

Waarnemingen en weersverwachtingen van meer dan 4000 vliegvelden (METAR en TAF).

De beschikbare stations zijn de gele en rode punten op de kaart.

Ga met uw muis naar het station om de naam te zien.

Klik dan om waarnemingen en weersverwachtingen te zien.

kaart wijzigen: klik op de groene knoppen met een zwart kruis om in te zoomen, op de groene knop met een streepje om uit te zoomen of op de groene pijlen voor aangrenzende kaarten.


METAR-TAF: